Time;durP1;ratioP1;P1;durP2;ratioP2;P2;SDS_P1;SDS_P2;PMS_P1;PMS_P2;Temp;Humidity;BMP_temperature;BMP_pressure;BME280_temperature;BME280_humidity;BME280_pressure;Samples;Min_cycle;Max_cycle;Signal;HPM_P1;HPM_P2
2024/02/01 00:01:36;;;;;;;11.53;10.00;;;5.70;99.90;;;;;;5035821;28;20224;-52
2024/02/01 00:04:04;;;;;;;14.47;10.03;;;5.70;99.90;;;;;;5037928;28;20207;-53
2024/02/01 00:06:30;;;;;;;15.73;10.93;;;5.70;99.90;;;;;;5027770;28;20256;-54
2024/02/01 00:08:57;;;;;;;13.27;10.00;;;5.70;99.90;;;;;;5030527;28;20737;-55
2024/02/01 00:11:24;;;;;;;14.17;11.13;;;5.70;99.90;;;;;;5007477;28;20305;-50
2024/02/01 00:13:52;;;;;;;12.03;10.70;;;5.70;99.90;;;;;;5039571;28;20207;-51
2024/02/01 00:16:23;;;;;;;15.60;10.73;;;5.70;99.90;;;;;;5025750;28;20268;-53
2024/02/01 00:18:50;;;;;;;13.97;11.50;;;5.70;99.90;;;;;;5040928;28;20290;-52
2024/02/01 00:21:17;;;;;;;14.10;10.07;;;5.70;99.90;;;;;;5016013;28;20219;-52
2024/02/01 00:23:43;;;;;;;12.37;10.10;;;5.70;99.90;;;;;;5036945;28;20207;-54
2024/02/01 00:26:10;;;;;;;13.10;11.10;;;5.70;99.90;;;;;;5040996;28;20265;-52
2024/02/01 00:28:37;;;;;;;14.23;11.27;;;5.70;99.90;;;;;;5002424;28;20266;-55
2024/02/01 00:31:05;;;;;;;13.43;10.27;;;5.70;99.90;;;;;;5031348;28;20728;-53
2024/02/01 00:33:32;;;;;;;16.80;10.83;;;5.70;99.90;;;;;;5036552;28;20640;-55
2024/02/01 00:35:59;;;;;;;12.07;10.03;;;5.70;99.90;;;;;;5027753;28;20211;-53
2024/02/01 00:38:26;;;;;;;13.83;10.17;;;5.80;99.90;;;;;;5036761;28;20195;-54
2024/02/01 00:40:52;;;;;;;11.80;10.60;;;5.80;99.90;;;;;;5034660;28;20839;-50
2024/02/01 00:43:19;;;;;;;16.20;10.83;;;5.80;99.90;;;;;;5012259;28;20227;-55
2024/02/01 00:45:46;;;;;;;12.27;10.20;;;5.80;99.90;;;;;;5022955;28;20280;-52
2024/02/01 00:48:16;;;;;;;14.67;10.60;;;5.80;99.90;;;;;;5038136;28;20604;-52
2024/02/01 00:50:43;;;;;;;15.47;11.20;;;5.80;99.90;;;;;;5029802;28;20195;-54
2024/02/01 00:53:10;;;;;;;13.57;10.90;;;5.90;99.90;;;;;;5029273;28;20262;-51
2024/02/01 00:55:36;;;;;;;12.23;9.87;;;5.90;99.90;;;;;;5031573;28;20199;-55
2024/02/01 00:58:03;;;;;;;12.13;10.40;;;5.90;99.90;;;;;;5036979;28;20676;-53
2024/02/01 01:00:30;;;;;;;12.43;10.27;;;5.90;99.90;;;;;;5010298;28;20268;-55
2024/02/01 01:02:59;;;;;;;14.63;9.80;;;5.90;99.90;;;;;;5033016;28;20211;-54
2024/02/01 01:05:27;;;;;;;12.40;9.63;;;5.90;99.90;;;;;;5039561;28;20195;-55
2024/02/01 01:07:54;;;;;;;15.23;10.50;;;6.00;99.90;;;;;;5028858;28;20949;-50
2024/02/01 01:10:20;;;;;;;12.63;10.53;;;6.00;99.90;;;;;;5038535;28;20195;-53
2024/02/01 01:12:48;;;;;;;10.40;9.30;;;6.00;99.90;;;;;;5034357;28;20215;-56
2024/02/01 01:15:15;;;;;;;11.80;9.63;;;6.00;99.90;;;;;;5008625;28;20223;-53
2024/02/01 01:17:41;;;;;;;13.07;10.00;;;6.00;99.90;;;;;;5025735;28;20269;-55
2024/02/01 01:20:09;;;;;;;12.33;10.07;;;6.10;99.90;;;;;;5035393;28;20206;-52
2024/02/01 01:22:39;;;;;;;10.73;9.40;;;6.10;99.90;;;;;;5020925;28;20322;-54
2024/02/01 01:25:07;;;;;;;10.90;8.57;;;6.10;99.90;;;;;;5042763;28;20285;-53
2024/02/01 01:27:34;;;;;;;13.33;9.80;;;6.10;99.90;;;;;;5032733;28;20269;-54
2024/02/01 01:30:00;;;;;;;12.27;9.83;;;6.10;99.90;;;;;;5008644;28;20281;-51
2024/02/01 01:32:27;;;;;;;11.57;9.67;;;6.10;99.90;;;;;;5034237;28;20211;-54
2024/02/01 01:34:54;;;;;;;10.37;8.87;;;6.20;99.90;;;;;;5037837;28;20237;-53
2024/02/01 01:37:21;;;;;;;12.53;9.50;;;6.20;99.90;;;;;;5041356;28;20199;-51
2024/02/01 01:39:49;;;;;;;11.93;9.37;;;6.20;99.90;;;;;;5030446;28;20782;-53
2024/02/01 01:42:16;;;;;;;11.30;8.63;;;6.20;99.90;;;;;;5043814;28;20249;-51
2024/02/01 01:44:43;;;;;;;10.33;9.00;;;6.20;99.90;;;;;;5039841;28;20203;-54
2024/02/01 01:47:10;;;;;;;11.33;9.40;;;6.20;99.90;;;;;;5009480;28;20286;-51
2024/02/01 01:49:37;;;;;;;12.10;9.07;;;6.20;99.90;;;;;;5042512;28;20656;-56
2024/02/01 01:52:05;;;;;;;9.97;8.83;;;6.30;99.90;;;;;;5043127;28;20222;-53
2024/02/01 01:54:33;;;;;;;12.33;10.17;;;6.30;99.90;;;;;;5038897;28;20191;-55
2024/02/01 01:57:03;;;;;;;10.20;9.13;;;6.30;99.90;;;;;;5042478;28;20194;-53
2024/02/01 01:59:30;;;;;;;10.83;8.93;;;6.30;99.90;;;;;;5041573;28;20226;-55
2024/02/01 02:01:58;;;;;;;12.93;9.67;;;6.30;99.90;;;;;;5017401;28;20904;-54
2024/02/01 02:04:25;;;;;;;9.07;8.20;;;6.30;99.90;;;;;;5035617;28;20290;-54
2024/02/01 02:06:55;;;;;;;10.17;8.83;;;6.30;99.90;;;;;;5042541;28;20195;-52
2024/02/01 02:09:22;;;;;;;9.10;8.13;;;6.30;99.90;;;;;;5045680;28;20191;-52
2024/02/01 02:11:49;;;;;;;10.63;9.60;;;6.30;99.90;;;;;;5033973;28;20281;-54
2024/02/01 02:14:18;;;;;;;9.40;8.40;;;6.30;99.90;;;;;;5048508;28;20203;-54
2024/02/01 02:16:45;;;;;;;9.63;8.17;;;6.30;99.90;;;;;;5009624;28;20668;-55
2024/02/01 02:19:11;;;;;;;11.70;8.20;;;6.40;99.90;;;;;;5036250;28;20237;-55
2024/02/01 02:21:45;;;;;;;9.60;8.60;;;6.40;99.90;;;;;;5041147;28;20699;-49
2024/02/01 02:24:12;;;;;;;10.73;8.30;;;6.40;99.90;;;;;;5033474;28;20299;-55
2024/02/01 02:26:39;;;;;;;8.67;7.67;;;6.40;99.90;;;;;;5033784;28;22135;-49
2024/02/01 02:29:06;;;;;;;11.37;7.97;;;6.40;99.90;;;;;;5038071;28;20268;-55
2024/02/01 02:31:32;;;;;;;10.13;7.83;;;6.40;99.90;;;;;;5012731;28;20589;-54
2024/02/01 02:33:59;;;;;;;7.87;7.10;;;6.40;99.90;;;;;;5033150;28;20207;-54
2024/02/01 02:36:26;;;;;;;7.30;6.37;;;6.50;99.90;;;;;;5034986;28;20306;-50
2024/02/01 02:38:55;;;;;;;8.43;7.67;;;6.50;99.90;;;;;;5040647;28;20249;-51
2024/02/01 02:41:22;;;;;;;8.73;7.83;;;6.50;99.90;;;;;;5029153;28;20241;-55
2024/02/01 02:43:49;;;;;;;9.27;7.57;;;6.50;99.90;;;;;;5043866;28;20269;-52
2024/02/01 02:46:16;;;;;;;10.10;7.43;;;6.50;99.90;;;;;;5014020;28;20199;-56
2024/02/01 02:48:42;;;;;;;8.53;7.30;;;6.50;99.90;;;;;;5044193;28;20280;-52
2024/02/01 02:51:09;;;;;;;7.67;6.83;;;6.50;99.90;;;;;;5027464;28;20211;-56
2024/02/01 02:53:36;;;;;;;9.97;7.80;;;6.60;99.90;;;;;;5032935;28;20788;-55
2024/02/01 02:56:06;;;;;;;7.17;6.47;;;6.50;99.90;;;;;;5034351;28;20231;-56
2024/02/01 02:58:35;;;;;;;9.97;7.23;;;6.60;99.90;;;;;;5037968;28;20951;-51
2024/02/01 03:01:05;;;;;;;9.20;7.53;;;6.60;99.90;;;;;;5021830;28;20192;-56
2024/02/01 03:03:32;;;;;;;9.07;7.00;;;6.60;99.90;;;;;;5022267;28;20214;-55
2024/02/01 03:05:59;;;;;;;7.53;6.63;;;6.60;99.90;;;;;;5023570;28;20207;-55
2024/02/01 03:08:26;;;;;;;11.10;7.30;;;6.60;99.90;;;;;;5027156;28;20199;-54
2024/02/01 03:10:53;;;;;;;9.60;7.03;;;6.60;99.90;;;;;;5033302;28;20195;-53
2024/02/01 03:13:21;;;;;;;8.40;6.63;;;6.60;99.90;;;;;;5019357;28;20199;-53
2024/02/01 03:15:48;;;;;;;9.97;7.13;;;6.60;99.90;;;;;;5044868;28;20207;-52
2024/02/01 03:18:15;;;;;;;11.80;6.63;;;6.60;99.90;;;;;;5017537;28;20210;-58
2024/02/01 03:20:43;;;;;;;10.97;6.53;;;6.60;99.90;;;;;;5029588;28;20256;-53
2024/02/01 03:23:10;;;;;;;10.80;6.63;;;6.60;99.90;;;;;;5040249;28;20224;-56
2024/02/01 03:25:39;;;;;;;15.37;6.60;;;6.60;99.90;;;;;;5041273;28;20268;-51
2024/02/01 03:28:06;;;;;;;14.57;6.60;;;6.50;99.90;;;;;;5037975;28;20285;-56
2024/02/01 03:30:38;;;;;;;12.30;6.30;;;6.50;99.90;;;;;;5037345;28;20195;-52
2024/02/01 03:33:06;;;;;;;12.63;6.03;;;6.50;99.90;;;;;;5014184;28;20223;-55
2024/02/01 03:35:33;;;;;;;11.03;5.90;;;6.40;99.90;;;;;;5037181;28;20195;-53
2024/02/01 03:38:00;;;;;;;20.73;5.57;;;6.40;99.90;;;;;;5033078;28;20207;-55
2024/02/01 03:40:27;;;;;;;17.67;5.60;;;6.40;99.90;;;;;;5035528;28;20196;-54
2024/02/01 03:42:54;;;;;;;10.20;4.83;;;6.40;99.90;;;;;;5036292;28;20215;-53
2024/02/01 03:45:21;;;;;;;22.93;5.77;;;6.40;99.90;;;;;;5032328;28;20198;-52
2024/02/01 03:47:50;;;;;;;16.27;5.13;;;6.40;99.90;;;;;;5007512;28;20208;-51
2024/02/01 03:50:17;;;;;;;19.67;5.07;;;6.30;99.90;;;;;;5026745;28;20191;-55
2024/02/01 03:52:44;;;;;;;16.93;4.97;;;6.30;99.90;;;;;;5028680;28;20219;-50
2024/02/01 03:55:17;;;;;;;12.37;4.10;;;6.30;99.90;;;;;;5029731;28;20269;-56
2024/02/01 03:57:45;;;;;;;18.50;5.40;;;6.30;99.90;;;;;;5035972;28;20855;-51
2024/02/01 04:00:25;;;;;;;19.13;5.47;;;6.30;99.90;;;;;;5031574;28;20338;-54
2024/02/01 04:02:56;;;;;;;20.63;4.67;;;6.20;99.90;;;;;;5035039;28;20225;-54
2024/02/01 04:05:23;;;;;;;15.27;4.60;;;6.20;99.90;;;;;;5012846;28;20208;-54
2024/02/01 04:07:50;;;;;;;17.60;4.77;;;6.20;99.90;;;;;;5030744;28;20762;-52
2024/02/01 04:10:16;;;;;;;14.67;4.13;;;6.10;99.90;;;;;;5038795;28;20261;-54
2024/02/01 04:12:43;;;;;;;22.57;5.00;;;6.10;99.90;;;;;;5039101;28;20223;-50
2024/02/01 04:15:11;;;;;;;20.70;4.80;;;6.10;99.90;;;;;;5031393;28;20195;-55
2024/02/01 04:17:38;;;;;;;21.50;4.13;;;6.00;99.90;;;;;;5035059;28;20208;-51
2024/02/01 04:20:08;;;;;;;18.27;3.67;;;6.00;99.90;;;;;;5012965;28;20288;-53
2024/02/01 04:22:35;;;;;;;17.43;4.53;;;6.00;99.90;;;;;;5030496;28;20958;-55
2024/02/01 04:25:02;;;;;;;18.07;3.83;;;5.90;99.90;;;;;;5014811;28;20289;-55
2024/02/01 04:27:28;;;;;;;20.83;4.67;;;5.90;99.90;;;;;;5042454;28;20924;-54
2024/02/01 04:29:55;;;;;;;13.53;3.67;;;5.80;99.90;;;;;;5034216;28;20268;-56
2024/02/01 04:32:22;;;;;;;23.70;4.27;;;5.80;99.90;;;;;;5025862;28;20268;-53
2024/02/01 04:34:49;;;;;;;18.80;3.57;;;5.70;99.90;;;;;;5035170;28;20203;-54
2024/02/01 04:37:18;;;;;;;18.67;3.93;;;5.70;99.90;;;;;;5010877;28;20219;-52
2024/02/01 04:39:48;;;;;;;24.47;4.20;;;5.70;99.90;;;;;;5029147;28;20199;-53
2024/02/01 04:42:23;;;;;;;20.97;4.10;;;5.60;99.90;;;;;;5034084;28;20368;-52
2024/02/01 04:44:50;;;;;;;17.83;3.93;;;5.60;99.90;;;;;;5035554;28;20198;-50
2024/02/01 04:47:17;;;;;;;28.57;4.40;;;5.60;99.90;;;;;;5024070;28;20358;-56
2024/02/01 04:49:44;;;;;;;27.73;5.20;;;5.50;99.90;;;;;;5036807;28;20196;-51
2024/02/01 04:52:11;;;;;;;28.37;4.27;;;5.50;99.90;;;;;;5009902;28;20302;-53
2024/02/01 04:54:39;;;;;;;24.27;4.03;;;5.50;99.90;;;;;;5037544;28;20730;-55
2024/02/01 04:57:13;;;;;;;27.33;4.50;;;5.40;99.90;;;;;;5026025;28;20208;-56
2024/02/01 04:59:43;;;;;;;23.33;3.67;;;5.50;99.90;;;;;;5037576;28;20203;-52
2024/02/01 05:02:10;;;;;;;25.10;4.57;;;5.40;99.90;;;;;;5028059;28;20772;-56
2024/02/01 05:04:37;;;;;;;22.33;3.90;;;5.40;99.90;;;;;;5039432;28;20239;-51
2024/02/01 05:07:05;;;;;;;22.20;3.93;;;5.30;99.90;;;;;;5002692;28;20280;-53
2024/02/01 05:09:33;;;;;;;15.10;3.03;;;5.30;99.90;;;;;;5040616;28;20235;-52
2024/02/01 05:12:02;;;;;;;24.10;4.07;;;5.30;99.90;;;;;;5028098;28;20321;-55
2024/02/01 05:14:29;;;;;;;20.27;4.20;;;5.30;99.90;;;;;;5040102;28;20334;-54
2024/02/01 05:16:56;;;;;;;17.87;2.87;;;5.30;99.90;;;;;;5040333;28;20203;-54
2024/02/01 05:19:25;;;;;;;19.03;4.60;;;5.30;99.90;;;;;;5039019;28;20187;-51
2024/02/01 05:21:53;;;;;;;24.10;3.70;;;5.20;99.90;;;;;;5009394;28;20231;-53
2024/02/01 05:24:21;;;;;;;19.27;3.20;;;5.10;99.90;;;;;;5033609;28;20304;-54
2024/02/01 05:26:50;;;;;;;26.70;4.47;;;5.10;99.90;;;;;;5035223;28;20209;-52
2024/02/01 05:29:19;;;;;;;19.57;3.20;;;5.10;99.90;;;;;;5028132;28;20199;-53
2024/02/01 05:31:48;;;;;;;13.63;3.27;;;5.10;99.90;;;;;;5037603;28;20204;-54
2024/02/01 05:34:15;;;;;;;20.90;3.93;;;5.10;99.90;;;;;;5035672;28;20191;-50
2024/02/01 05:36:45;;;;;;;20.57;3.50;;;5.00;99.90;;;;;;5040148;28;20206;-57
2024/02/01 05:39:24;;;;;;;15.40;3.27;;;5.00;99.90;;;;;;5009966;28;20203;-53
2024/02/01 05:41:52;;;;;;;18.53;3.57;;;5.00;99.90;;;;;;5018800;28;20234;-52
2024/02/01 05:44:21;;;;;;;15.57;3.17;;;5.00;99.90;;;;;;5026327;28;20223;-51
2024/02/01 05:46:48;;;;;;;13.93;3.00;;;5.00;99.90;;;;;;5025850;28;20208;-54
2024/02/01 05:49:18;;;;;;;17.53;3.60;;;5.00;99.90;;;;;;5038953;28;20192;-53
2024/02/01 05:51:47;;;;;;;24.40;4.10;;;5.00;99.90;;;;;;5027127;28;20212;-55
2024/02/01 05:54:14;;;;;;;12.50;2.60;;;4.90;99.90;;;;;;5007904;28;20203;-51
2024/02/01 05:56:43;;;;;;;14.50;3.10;;;5.00;99.90;;;;;;5026874;28;20191;-55
2024/02/01 05:59:12;;;;;;;17.07;3.13;;;4.90;99.90;;;;;;5026297;28;20199;-52
2024/02/01 06:01:41;;;;;;;20.13;2.60;;;4.90;99.90;;;;;;5029947;28;20805;-56
2024/02/01 06:04:08;;;;;;;15.63;3.30;;;4.90;99.90;;;;;;5033148;28;20233;-52
2024/02/01 06:06:36;;;;;;;18.53;3.00;;;4.90;99.90;;;;;;5031719;28;20196;-56
2024/02/01 06:09:04;;;;;;;12.97;3.10;;;4.90;99.90;;;;;;5003489;28;20979;-54
2024/02/01 06:11:31;;;;;;;24.33;4.10;;;4.90;99.90;;;;;;5027298;28;20286;-53
2024/02/01 06:13:58;;;;;;;18.87;3.23;;;4.90;99.90;;;;;;5028710;28;20249;-53
2024/02/01 06:16:25;;;;;;;18.77;4.07;;;4.90;99.90;;;;;;5040820;28;20702;-55
2024/02/01 06:18:53;;;;;;;14.17;2.73;;;4.80;99.90;;;;;;5030905;28;20234;-55
2024/02/01 06:21:20;;;;;;;17.70;2.97;;;4.80;99.90;;;;;;5035497;28;20216;-55
2024/02/01 06:23:47;;;;;;;20.33;3.37;;;4.80;99.90;;;;;;5003844;28;20215;-53
2024/02/01 06:26:26;;;;;;;19.93;4.17;;;4.90;99.90;;;;;;5033503;28;20249;-54
2024/02/01 06:28:56;;;;;;;12.53;2.83;;;4.90;99.90;;;;;;5027041;28;20211;-50
2024/02/01 06:31:24;;;;;;;17.83;3.37;;;4.90;99.90;;;;;;5035655;28;20346;-57
2024/02/01 06:33:52;;;;;;;15.47;2.83;;;4.90;99.90;;;;;;5029704;28;20213;-54
2024/02/01 06:36:19;;;;;;;12.83;3.10;;;4.90;99.90;;;;;;5031518;28;20753;-54
2024/02/01 06:39:06;;;;;;;23.50;3.50;;;4.90;99.90;;;;;;5040609;28;20223;-54
2024/02/01 06:41:46;;;;;;;15.17;2.63;;;4.90;99.90;;;;;;5011267;28;20238;-53
2024/02/01 06:44:22;;;;;;;14.70;3.20;;;4.90;99.90;;;;;;5033287;28;20277;-52
2024/02/01 06:47:05;;;;;;;15.73;2.80;;;4.90;99.90;;;;;;5038440;28;20195;-55
2024/02/01 06:49:59;;;;;;;18.00;2.90;;;4.90;99.90;;;;;;5031111;28;20975;-53
2024/02/01 06:52:38;;;;;;;20.63;3.93;;;4.80;99.90;;;;;;5029970;28;20224;-56
2024/02/01 06:55:24;;;;;;;17.63;3.50;;;4.80;99.90;;;;;;5011255;28;20204;-54
2024/02/01 06:58:03;;;;;;;21.20;4.13;;;4.90;99.90;;;;;;5038336;28;20683;-55
2024/02/01 07:03:32;;;;;;;28.70;3.77;;;4.90;99.90;;;;;;5028720;28;20223;-55
2024/02/01 07:06:06;;;;;;;19.23;3.60;;;4.90;99.90;;;;;;5033319;28;20222;-52
2024/02/01 07:08:45;;;;;;;21.67;3.37;;;4.90;99.90;;;;;;5033863;28;20957;-52
2024/02/01 07:11:14;;;;;;;18.50;3.20;;;4.90;99.90;;;;;;5013361;28;20211;-54
2024/02/01 07:13:57;;;;;;;17.13;3.60;;;4.90;99.90;;;;;;5035305;28;20187;-52
2024/02/01 07:16:35;;;;;;;24.93;3.30;;;4.90;99.90;;;;;;5013685;28;20207;-52
2024/02/01 07:19:10;;;;;;;22.43;4.40;;;4.90;99.90;;;;;;5040080;28;20210;-53
2024/02/01 07:24:38;;;;;;;27.57;4.50;;;4.90;99.90;;;;;;5009103;28;20216;-52
2024/02/01 07:57:51;;;;;;;22.63;4.03;;;5.00;99.90;;;;;;5009476;28;20200;-55
2024/02/01 08:00:19;;;;;;;17.77;3.73;;;5.00;99.90;;;;;;5030725;28;20191;-53
2024/02/01 08:02:49;;;;;;;20.07;3.97;;;5.00;99.90;;;;;;5027097;28;20207;-52
2024/02/01 08:08:10;;;;;;;22.80;4.37;;;5.10;99.90;;;;;;5028188;28;20196;-55
2024/02/01 08:10:39;;;;;;;21.10;3.73;;;5.10;99.90;;;;;;5033021;28;20203;-56
2024/02/01 08:13:07;;;;;;;30.37;4.03;;;5.10;99.90;;;;;;5012642;28;20222;-53
2024/02/01 08:15:37;;;;;;;24.20;3.77;;;5.20;99.90;;;;;;5022769;28;20200;-54
2024/02/01 08:18:08;;;;;;;22.03;4.43;;;5.20;99.90;;;;;;5038558;28;20227;-55
2024/02/01 08:20:35;;;;;;;24.03;4.40;;;5.20;99.90;;;;;;5012973;28;20691;-52
2024/02/01 08:23:03;;;;;;;21.23;3.97;;;5.30;99.90;;;;;;5033890;28;20227;-54
2024/02/01 08:25:30;;;;;;;25.17;4.57;;;5.30;99.90;;;;;;5033401;28;20207;-53
2024/02/01 08:28:08;;;;;;;22.23;4.37;;;5.30;99.90;;;;;;5009431;28;20208;-52
2024/02/01 08:30:36;;;;;;;26.90;3.67;;;5.30;99.90;;;;;;5016969;28;20192;-51
2024/02/01 08:33:04;;;;;;;25.83;4.77;;;5.40;99.90;;;;;;5034670;28;20310;-46
2024/02/01 08:35:33;;;;;;;30.67;4.70;;;5.40;99.90;;;;;;5018790;28;20206;-54
2024/02/01 08:38:01;;;;;;;24.13;4.17;;;5.40;99.90;;;;;;5031329;28;20206;-46
2024/02/01 08:40:28;;;;;;;30.77;4.73;;;5.50;99.90;;;;;;5034842;28;21006;-55
2024/02/01 08:42:59;;;;;;;27.37;6.03;;;5.50;99.90;;;;;;5034371;28;20211;-52
2024/02/01 08:45:30;;;;;;;29.13;4.83;;;5.50;99.90;;;;;;5002371;28;20222;-53
2024/02/01 08:48:00;;;;;;;28.07;4.20;;;5.50;99.90;;;;;;5028244;28;20284;-50
2024/02/01 08:50:29;;;;;;;34.80;4.20;;;5.60;99.90;;;;;;5024323;28;20196;-55
2024/02/01 08:52:56;;;;;;;27.97;4.97;;;5.60;99.90;;;;;;5028205;28;20288;-49
2024/02/01 08:55:22;;;;;;;31.20;5.07;;;5.60;99.90;;;;;;5026992;28;20678;-55
2024/02/01 08:57:49;;;;;;;23.87;4.63;;;5.60;99.90;;;;;;5032983;28;20191;-52
2024/02/01 09:00:30;;;;;;;30.30;4.97;;;5.70;99.90;;;;;;5007501;28;20207;-55
2024/02/01 09:03:04;;;;;;;25.47;5.20;;;5.70;99.90;;;;;;5030813;28;20226;-54
2024/02/01 09:05:35;;;;;;;27.67;4.80;;;5.70;99.90;;;;;;5028336;28;20215;-55
2024/02/01 09:08:03;;;;;;;24.80;5.47;;;5.80;99.90;;;;;;5026829;28;20204;-48
2024/02/01 09:10:30;;;;;;;24.90;4.90;;;5.80;99.90;;;;;;5024091;28;20225;-49
2024/02/01 09:12:57;;;;;;;21.67;4.03;;;5.80;99.90;;;;;;5034506;28;20829;-45
2024/02/01 09:15:25;;;;;;;24.47;4.60;;;5.90;99.90;;;;;;5012279;28;20295;-53
2024/02/01 09:17:52;;;;;;;27.40;4.23;;;5.90;99.90;;;;;;5030840;28;20210;-54
2024/02/01 09:20:22;;;;;;;26.63;4.87;;;6.00;99.90;;;;;;5034470;28;20205;-48
2024/02/01 09:22:50;;;;;;;27.77;5.53;;;6.10;99.90;;;;;;5032627;28;20284;-53
2024/02/01 09:25:21;;;;;;;24.60;4.70;;;6.10;99.90;;;;;;5029951;28;20223;-49
2024/02/01 09:27:49;;;;;;;25.53;5.00;;;6.10;99.90;;;;;;5032616;28;20667;-56
2024/02/01 09:30:19;;;;;;;28.70;4.37;;;6.00;99.90;;;;;;5030443;28;20188;-51
2024/02/01 09:32:49;;;;;;;25.20;4.30;;;6.10;99.90;;;;;;5010721;28;20297;-55
2024/02/01 09:35:17;;;;;;;24.33;4.97;;;6.10;99.90;;;;;;5032176;28;20184;-47
2024/02/01 09:37:45;;;;;;;23.33;5.20;;;6.20;99.90;;;;;;5030857;28;20196;-54
2024/02/01 09:40:13;;;;;;;18.40;4.87;;;6.30;99.90;;;;;;5029827;28;20218;-50
2024/02/01 09:42:42;;;;;;;30.60;4.93;;;6.40;99.90;;;;;;5036542;28;20210;-50
2024/02/01 09:45:10;;;;;;;19.13;4.63;;;6.50;99.90;;;;;;5039050;28;20221;-47
2024/02/01 09:47:46;;;;;;;27.37;4.73;;;6.50;99.90;;;;;;5021118;28;20791;-56
2024/02/01 09:50:14;;;;;;;27.27;4.60;;;6.60;99.90;;;;;;5033282;28;21500;-48
2024/02/01 09:52:47;;;;;;;25.10;5.27;;;6.60;99.90;;;;;;5036237;28;20296;-56
2024/02/01 09:55:17;;;;;;;26.07;5.07;;;6.70;99.90;;;;;;5032114;28;20203;-51
2024/02/01 09:57:46;;;;;;;25.60;4.83;;;6.70;99.90;;;;;;5036180;28;20266;-55
2024/02/01 10:00:18;;;;;;;18.50;4.73;;;6.70;99.90;;;;;;5035478;28;20210;-51
2024/02/01 10:02:47;;;;;;;26.97;4.83;;;6.70;99.90;;;;;;5013678;28;20231;-58
2024/02/01 10:05:15;;;;;;;19.70;4.30;;;6.80;99.90;;;;;;5042389;28;21007;-49
2024/02/01 10:07:42;;;;;;;21.07;4.63;;;6.80;99.90;;;;;;5032874;28;20703;-55
2024/02/01 10:10:13;;;;;;;27.83;4.63;;;6.80;99.90;;;;;;5027043;28;21415;-52
2024/02/01 10:12:42;;;;;;;26.97;4.97;;;6.90;99.90;;;;;;5020796;28;20262;-56
2024/02/01 10:15:11;;;;;;;26.67;5.03;;;6.90;99.90;;;;;;5038947;28;20228;-54
2024/02/01 10:17:45;;;;;;;23.70;4.60;;;7.00;99.90;;;;;;5016831;28;20279;-53
2024/02/01 10:20:38;;;;;;;24.30;4.17;;;7.00;99.90;;;;;;5033566;28;20191;-53
2024/02/01 10:23:06;;;;;;;31.90;5.23;;;7.10;99.90;;;;;;5032680;28;20303;-53
2024/02/01 10:25:38;;;;;;;25.50;5.47;;;7.10;99.90;;;;;;5025231;28;20211;-50
2024/02/01 10:28:07;;;;;;;27.57;6.03;;;7.10;99.90;;;;;;5034169;28;20196;-55
2024/02/01 10:30:36;;;;;;;22.73;4.77;;;7.10;99.90;;;;;;5026439;28;20192;-50
2024/02/01 10:33:03;;;;;;;20.67;5.00;;;7.20;99.90;;;;;;5030092;28;20707;-52
2024/02/01 10:35:32;;;;;;;32.37;5.30;;;7.20;99.90;;;;;;5009338;28;20196;-50
2024/02/01 10:38:01;;;;;;;24.80;4.70;;;7.30;99.90;;;;;;5032338;28;20203;-53
2024/02/01 10:40:39;;;;;;;24.33;4.47;;;7.30;99.90;;;;;;5024405;28;20282;-52
2024/02/01 10:43:07;;;;;;;20.13;4.17;;;7.30;99.90;;;;;;5029541;28;20220;-53
2024/02/01 10:45:36;;;;;;;19.53;4.33;;;7.40;99.90;;;;;;5023303;28;20246;-54
2024/02/01 10:48:10;;;;;;;19.40;4.03;;;7.40;99.90;;;;;;5028446;28;20271;-52
2024/02/01 10:50:39;;;;;;;22.53;4.73;;;7.50;99.90;;;;;;5003288;28;20283;-53
2024/02/01 10:53:07;;;;;;;21.10;4.07;;;7.50;99.90;;;;;;5035674;28;20220;-52
2024/02/01 10:55:39;;;;;;;21.43;4.50;;;7.50;99.90;;;;;;5030819;28;20182;-52
2024/02/01 10:58:12;;;;;;;20.40;4.70;;;7.50;99.90;;;;;;5029489;28;20207;-54
2024/02/01 11:00:42;;;;;;;19.83;3.47;;;7.50;99.90;;;;;;5034820;28;20191;-53
2024/02/01 11:03:11;;;;;;;19.93;3.40;;;7.60;99.90;;;;;;5031730;28;20753;-53
2024/02/01 11:05:41;;;;;;;16.83;3.73;;;7.60;99.90;;;;;;4998828;28;20223;-50
2024/02/01 11:08:30;;;;;;;12.70;3.60;;;7.70;99.90;;;;;;5024078;28;20195;-55
2024/02/01 11:11:15;;;;;;;21.00;4.30;;;7.70;99.90;;;;;;5025799;28;20195;-49
2024/02/01 11:13:43;;;;;;;20.53;3.77;;;7.70;99.90;;;;;;5029043;28;20210;-47
2024/02/01 11:16:11;;;;;;;23.27;4.27;;;7.80;99.90;;;;;;5030355;28;20268;-49
2024/02/01 11:18:54;;;;;;;19.70;4.47;;;7.90;99.90;;;;;;5029806;28;20672;-49
2024/02/01 11:21:30;;;;;;;7.80;2.30;;;7.90;99.90;;;;;;5006499;28;20211;-51
2024/02/01 11:24:10;;;;;;;19.43;3.47;;;7.90;99.90;;;;;;5029461;28;20229;-61
2024/02/01 11:26:41;;;;;;;24.63;4.30;;;7.90;99.90;;;;;;5032406;28;20276;-48
2024/02/01 11:29:13;;;;;;;18.10;3.30;;;7.90;99.90;;;;;;5026299;28;20352;-54
2024/02/01 11:31:45;;;;;;;17.07;3.43;;;8.00;99.90;;;;;;5028086;28;20211;-46
2024/02/01 11:34:16;;;;;;;14.30;3.23;;;7.90;99.90;;;;;;5030598;28;20223;-54
2024/02/01 11:36:44;;;;;;;18.57;3.33;;;7.90;99.90;;;;;;5006624;28;20200;-51
2024/02/01 11:39:13;;;;;;;15.03;3.10;;;7.90;99.90;;;;;;5037225;28;20204;-55
2024/02/01 11:41:46;;;;;;;17.60;3.63;;;8.00;99.90;;;;;;5022473;28;20299;-52
2024/02/01 11:44:14;;;;;;;13.77;3.60;;;8.00;99.90;;;;;;5045590;28;20266;-52
2024/02/01 11:46:45;;;;;;;22.07;4.37;;;8.00;99.90;;;;;;5028717;28;20703;-51
2024/02/01 11:49:17;;;;;;;15.80;3.37;;;8.00;99.90;;;;;;5039876;28;20203;-53
2024/02/01 11:51:46;;;;;;;15.73;4.07;;;8.00;99.90;;;;;;5011391;28;20282;-50
2024/02/01 11:54:14;;;;;;;17.07;3.70;;;8.00;99.90;;;;;;5041345;28;20207;-55
2024/02/01 11:56:44;;;;;;;13.67;3.83;;;8.00;99.90;;;;;;5032110;28;20187;-52
2024/02/01 11:59:12;;;;;;;14.97;3.53;;;8.00;99.90;;;;;;5028215;28;20253;-54
2024/02/01 12:01:39;;;;;;;10.40;2.60;;;8.00;99.90;;;;;;5034075;28;20296;-53
2024/02/01 12:04:08;;;;;;;17.53;4.17;;;8.00;99.90;;;;;;5034891;28;20218;-50
2024/02/01 12:06:36;;;;;;;18.93;4.80;;;8.00;99.90;;;;;;5024558;28;20299;-51
2024/02/01 12:09:09;;;;;;;14.77;2.70;;;8.00;99.90;;;;;;5016933;28;20196;-54
2024/02/01 12:11:36;;;;;;;19.30;3.20;;;8.00;99.90;;;;;;5038407;28;20219;-51
2024/02/01 12:14:17;;;;;;;17.70;3.90;;;8.00;99.90;;;;;;5028177;28;20215;-51
2024/02/01 12:16:49;;;;;;;19.60;4.67;;;8.00;99.90;;;;;;5037110;28;20188;-53
2024/02/01 12:19:18;;;;;;;15.20;2.47;;;8.00;99.90;;;;;;5041212;28;20282;-53
2024/02/01 12:21:51;;;;;;;19.20;4.00;;;8.00;99.90;;;;;;5044257;28;20581;-53
2024/02/01 12:24:34;;;;;;;18.67;4.13;;;8.00;99.90;;;;;;5003586;28;20215;-54
2024/02/01 12:27:17;;;;;;;13.70;3.07;;;8.10;99.90;;;;;;5023399;28;20234;-53
2024/02/01 12:29:49;;;;;;;19.50;3.97;;;8.10;99.90;;;;;;5035321;28;20199;-51
2024/02/01 12:32:19;;;;;;;23.90;3.90;;;8.10;99.90;;;;;;5031619;28;20620;-54
2024/02/01 12:34:46;;;;;;;16.27;4.10;;;8.10;99.90;;;;;;5036914;28;20191;-49
2024/02/01 12:37:14;;;;;;;22.73;4.03;;;8.00;99.90;;;;;;5020861;28;21315;-48
2024/02/01 12:39:42;;;;;;;17.83;3.50;;;8.00;99.90;;;;;;5015978;28;20549;-51
2024/02/01 12:42:14;;;;;;;23.17;4.17;;;8.10;99.90;;;;;;5029577;28;20231;-54
2024/02/01 12:44:52;;;;;;;24.57;4.07;;;8.10;99.90;;;;;;5029961;28;20203;-52
2024/02/01 12:47:25;;;;;;;20.63;4.17;;;8.10;99.90;;;;;;5034369;28;20179;-51
2024/02/01 12:49:56;;;;;;;17.43;3.57;;;8.10;99.90;;;;;;5037715;28;20195;-50
2024/02/01 12:52:28;;;;;;;22.93;3.73;;;8.10;99.90;;;;;;5032022;28;20231;-52
2024/02/01 12:55:00;;;;;;;23.43;4.47;;;8.10;99.90;;;;;;5012157;28;20213;-52
2024/02/01 12:57:27;;;;;;;15.20;4.23;;;8.10;99.90;;;;;;5029954;28;20931;-55
2024/02/01 12:59:58;;;;;;;17.83;3.33;;;8.00;99.90;;;;;;5032232;28;20683;-52
2024/02/01 13:02:30;;;;;;;15.70;3.70;;;8.00;99.90;;;;;;5035017;28;20256;-56
2024/02/01 13:05:04;;;;;;;23.83;4.10;;;8.00;99.90;;;;;;5017545;28;20199;-53
2024/02/01 13:07:31;;;;;;;15.10;3.67;;;8.00;99.90;;;;;;5032442;28;20643;-53
2024/02/01 13:10:05;;;;;;;17.83;3.23;;;8.00;99.90;;;;;;5005533;28;20288;-52
2024/02/01 13:12:33;;;;;;;15.70;3.57;;;8.00;99.90;;;;;;5034737;28;20721;-45
2024/02/01 13:15:10;;;;;;;18.23;3.57;;;8.00;99.90;;;;;;5029424;28;21252;-54
2024/02/01 13:17:40;;;;;;;13.73;3.87;;;8.10;99.90;;;;;;5032165;28;20294;-49
2024/02/01 13:20:26;;;;;;;24.17;3.60;;;8.10;99.90;;;;;;5034644;28;20274;-48
2024/02/01 13:23:08;;;;;;;15.87;3.03;;;8.10;99.90;;;;;;5032047;28;20210;-50
2024/02/01 13:25:37;;;;;;;16.77;3.73;;;8.10;99.90;;;;;;5010567;28;20220;-49
2024/02/01 13:28:08;;;;;;;22.37;3.87;;;8.10;99.90;;;;;;5024312;28;20314;-58
2024/02/01 13:30:40;;;;;;;16.27;3.70;;;8.10;99.90;;;;;;5019670;28;20199;-55
2024/02/01 13:33:12;;;;;;;16.90;4.10;;;8.10;99.90;;;;;;5032777;28;20226;-55
2024/02/01 13:35:39;;;;;;;14.20;3.43;;;8.20;99.90;;;;;;5033020;28;20199;-56
2024/02/01 13:38:09;;;;;;;18.83;5.17;;;8.20;99.90;;;;;;5032861;28;20192;-55